createdAt,value
2018-09-28T00:00:25.221Z,63.861084
2018-09-28T00:01:25.219Z,63.964844
2018-09-28T00:02:25.285Z,64.068604
2018-09-28T00:03:25.365Z,64.068604
2018-09-28T00:04:25.481Z,63.964844
2018-09-28T00:05:25.467Z,63.861084
2018-09-28T00:06:25.530Z,63.995361
2018-09-28T00:07:25.633Z,64.398193
2018-09-28T00:08:25.755Z,64.196777
2018-09-28T00:09:25.847Z,64.300537
2018-09-28T00:10:25.899Z,64.300537
2018-09-28T00:11:26.040Z,64.398193
2018-09-28T00:12:26.268Z,64.300537
2018-09-28T00:13:26.240Z,64.63623
2018-09-28T00:14:26.189Z,64.941406
2018-09-28T00:15:26.314Z,64.501953
2018-09-28T00:16:26.416Z,64.605713
2018-09-28T00:17:26.572Z,64.398193
2018-09-28T00:18:26.644Z,64.300537
2018-09-28T00:19:26.740Z,64.398193
2018-09-28T00:20:26.849Z,64.300537
2018-09-28T00:21:26.947Z,64.196777
2018-09-28T00:22:27.048Z,64.428711
2018-09-28T00:23:27.273Z,65.142822
2018-09-28T00:24:27.226Z,65.679932
2018-09-28T00:25:27.248Z,65.783691
2018-09-28T00:26:27.346Z,66.082764
2018-09-28T00:27:27.577Z,65.881348
2018-09-28T00:28:27.443Z,65.881348
2018-09-28T00:29:27.470Z,66.522217
2018-09-28T00:30:27.577Z,66.186523
2018-09-28T00:31:27.607Z,65.783691
2018-09-28T00:32:27.716Z,65.344238
2018-09-28T00:33:27.759Z,65.881348
2018-09-28T00:34:28.048Z,65.783691
2018-09-28T00:35:27.919Z,65.447998
2018-09-28T00:36:27.902Z,65.240479
2018-09-28T00:37:27.953Z,65.039062
2018-09-28T00:38:28.273Z,64.733887
2018-09-28T00:39:28.215Z,64.501953
2018-09-28T00:40:29.405Z,64.428711
2018-09-28T00:41:28.340Z,64.63623
2018-09-28T00:42:28.454Z,64.733887
2018-09-28T00:43:28.585Z,64.532471
2018-09-28T00:44:28.916Z,65.06958
2018-09-28T00:45:28.637Z,65.478516
2018-09-28T00:46:28.746Z,65.478516
2018-09-28T00:47:28.847Z,65.576172
2018-09-28T00:48:28.804Z,65.679932
2018-09-28T00:49:28.919Z,65.478516
2018-09-28T00:50:28.905Z,65.17334
2018-09-28T00:51:28.924Z,65.039062
2018-09-28T00:52:29.073Z,65.478516
2018-09-28T00:53:29.181Z,65.576172
2018-09-28T00:54:29.319Z,65.478516
2018-09-28T00:55:29.360Z,65.374756
2018-09-28T00:56:29.481Z,65.478516
2018-09-28T00:57:29.512Z,65.679932
2018-09-28T00:58:29.613Z,65.881348
2018-09-28T00:59:29.670Z,65.478516
2018-09-28T01:00:29.829Z,65.478516
2018-09-28T01:01:29.955Z,65.783691
2018-09-28T01:02:30.067Z,65.783691
2018-09-28T01:03:30.159Z,66.186523
2018-09-28T01:04:30.288Z,66.723633
2018-09-28T01:05:30.315Z,67.028809
2018-09-28T01:06:30.597Z,66.900635
2018-09-28T01:07:30.469Z,66.491699
2018-09-28T01:08:30.523Z,66.186523
2018-09-28T01:09:30.635Z,65.95459
2018-09-28T01:10:30.814Z,65.85083
2018-09-28T01:11:30.837Z,65.881348
2018-09-28T01:12:30.888Z,65.85083
2018-09-28T01:13:30.985Z,65.753174
2018-09-28T01:14:31.207Z,66.387939
2018-09-28T01:15:31.168Z,66.491699
2018-09-28T01:16:31.145Z,66.387939
2018-09-28T01:17:31.288Z,65.85083
2018-09-28T01:18:31.437Z,65.649414
2018-09-28T01:19:31.384Z,65.545654
2018-09-28T01:20:31.470Z,65.753174
2018-09-28T01:21:31.649Z,65.753174
2018-09-28T01:22:31.607Z,65.649414
2018-09-28T01:23:31.636Z,65.783691
2018-09-28T01:24:31.730Z,66.082764
2018-09-28T01:25:32.044Z,66.290283
2018-09-28T01:26:31.835Z,66.186523
2018-09-28T01:27:31.910Z,66.625977
2018-09-28T01:28:32.039Z,67.132568
2018-09-28T01:29:32.046Z,67.236328
2018-09-28T01:30:32.117Z,67.236328
2018-09-28T01:31:32.227Z,67.236328
2018-09-28T01:32:32.204Z,67.132568
2018-09-28T01:33:32.196Z,67.541504
2018-09-28T01:34:32.316Z,67.541504
2018-09-28T01:35:32.437Z,67.132568
2018-09-28T01:36:32.615Z,66.796875
2018-09-28T01:37:32.645Z,66.796875
2018-09-28T01:38:32.729Z,67.132568
2018-09-28T01:39:32.844Z,67.541504
2018-09-28T01:40:33.034Z,67.236328
2018-09-28T01:41:32.960Z,66.900635
2018-09-28T01:42:33.051Z,66.693115
2018-09-28T01:43:33.145Z,66.693115
2018-09-28T01:44:33.187Z,66.387939
2018-09-28T01:45:33.360Z,67.236328
2018-09-28T01:46:33.344Z,68.31665
2018-09-28T01:47:33.465Z,68.31665
2018-09-28T01:48:33.564Z,68.078613
2018-09-28T01:49:33.752Z,67.364502
2018-09-28T01:50:33.628Z,66.931152
2018-09-28T01:51:33.770Z,67.163086
2018-09-28T01:52:33.800Z,67.163086
2018-09-28T01:53:33.808Z,66.625977
2018-09-28T01:54:33.825Z,66.418457
2018-09-28T01:55:33.926Z,66.552734
2018-09-28T01:56:34.092Z,66.760254
2018-09-28T01:57:33.970Z,66.760254
2018-09-28T01:58:34.037Z,66.656494
2018-09-28T01:59:34.128Z,66.522217
2018-09-28T02:00:34.124Z,66.217041
2018-09-28T02:01:34.250Z,66.455078
2018-09-28T02:02:34.332Z,66.119385
2018-09-28T02:03:35.303Z,66.320801
2018-09-28T02:04:34.465Z,66.217041
2018-09-28T02:05:34.442Z,65.606689
2018-09-28T02:06:34.559Z,65.710449
2018-09-28T02:07:34.792Z,66.351318
2018-09-28T02:08:34.736Z,66.552734
2018-09-28T02:09:34.726Z,66.552734
2018-09-28T02:10:34.837Z,66.247559
2018-09-28T02:11:35.140Z,65.942383
2018-09-28T02:12:35.118Z,66.046143
2018-09-28T02:13:35.145Z,65.844727
2018-09-28T02:14:35.235Z,65.740967
2018-09-28T02:15:35.336Z,65.740967
2018-09-28T02:16:35.360Z,65.740967
2018-09-28T02:17:35.380Z,65.637207
2018-09-28T02:18:35.565Z,65.637207
2018-09-28T02:19:35.493Z,65.435791
2018-09-28T02:20:36.632Z,64.898682
2018-09-28T02:21:35.602Z,64.697266
2018-09-28T02:22:35.923Z,64.825439
2018-09-28T02:23:35.710Z,64.929199
2018-09-28T02:24:35.727Z,64.727783
2018-09-28T02:25:35.852Z,64.727783
2018-09-28T02:26:35.968Z,64.727783
2018-09-28T02:27:36.018Z,65.234375
2018-09-28T02:28:36.025Z,65.264893
2018-09-28T02:29:36.245Z,65.9729
2018-09-28T02:30:36.172Z,65.875244
2018-09-28T02:31:36.202Z,66.210938
2018-09-28T02:32:36.382Z,66.717529
2018-09-28T02:33:36.341Z,66.381836
2018-09-28T02:34:36.379Z,66.61377
2018-09-28T02:35:36.415Z,66.918945
2018-09-28T02:36:36.431Z,66.821289
2018-09-28T02:37:36.583Z,67.022705
2018-09-28T02:38:36.654Z,66.717529
2018-09-28T02:39:36.593Z,66.412354
2018-09-28T02:40:36.717Z,66.18042
2018-09-28T02:41:36.816Z,65.667725
2018-09-28T02:42:37.035Z,65.667725
2018-09-28T02:43:36.946Z,65.9729
2018-09-28T02:44:37.050Z,65.667725
2018-09-28T02:45:37.183Z,65.667725
2018-09-28T02:46:37.290Z,65.875244
2018-09-28T02:47:37.341Z,66.003418
2018-09-28T02:48:37.431Z,67.462158
2018-09-28T02:49:37.553Z,67.462158
2018-09-28T02:50:37.551Z,67.358398
2018-09-28T02:51:37.600Z,67.053223
2018-09-28T02:52:37.747Z,66.516113
2018-09-28T02:53:38.021Z,65.9729
2018-09-28T02:54:37.917Z,65.667725
2018-09-28T02:55:37.997Z,65.875244
2018-09-28T02:56:38.118Z,65.875244
2018-09-28T02:57:38.358Z,66.07666
2018-09-28T02:58:38.346Z,66.07666
2018-09-28T02:59:38.432Z,66.278076
2018-09-28T03:00:38.509Z,66.412354
2018-09-28T03:01:38.629Z,67.358398
2018-09-28T03:02:38.726Z,67.565918
2018-09-28T03:03:38.854Z,67.126465
2018-09-28T03:04:38.891Z,67.224121
2018-09-28T03:05:38.927Z,67.022705
2018-09-28T03:06:38.901Z,67.126465
2018-09-28T03:07:38.895Z,66.918945
2018-09-28T03:08:39.154Z,66.717529
2018-09-28T03:09:39.064Z,66.583252
2018-09-28T03:10:39.126Z,66.583252
2018-09-28T03:11:39.242Z,66.278076
2018-09-28T03:12:39.408Z,66.381836
2018-09-28T03:13:39.369Z,67.126465
2018-09-28T03:14:39.524Z,68.481445
2018-09-28T03:15:39.610Z,68.481445
2018-09-28T03:16:39.792Z,68.273926
2018-09-28T03:17:39.730Z,68.481445
2018-09-28T03:18:39.801Z,68.682861
2018-09-28T03:19:40.019Z,68.139648
2018-09-28T03:20:39.928Z,67.834473
2018-09-28T03:21:40.088Z,67.401123
2018-09-28T03:22:40.204Z,67.193604
2018-09-28T03:23:40.396Z,67.431641
2018-09-28T03:24:40.366Z,67.529297
2018-09-28T03:25:40.575Z,67.431641
2018-09-28T03:26:40.475Z,67.224121
2018-09-28T03:27:40.692Z,66.888428
2018-09-28T03:28:40.676Z,66.888428
2018-09-28T03:29:40.687Z,66.888428
2018-09-28T03:30:40.639Z,66.790771
2018-09-28T03:31:40.754Z,66.687012
2018-09-28T03:32:40.851Z,66.687012
2018-09-28T03:33:40.937Z,66.790771
2018-09-28T03:34:41.081Z,66.888428
2018-09-28T03:35:41.172Z,66.687012
2018-09-28T03:36:41.236Z,66.485596
2018-09-28T03:37:41.274Z,66.821289
2018-09-28T03:38:41.435Z,67.327881
2018-09-28T03:39:41.559Z,66.821289
2018-09-28T03:40:41.830Z,66.821289
2018-09-28T03:41:41.757Z,66.918945
2018-09-28T03:42:41.879Z,66.717529
2018-09-28T03:43:42.011Z,66.821289
2018-09-28T03:44:42.233Z,66.918945
2018-09-28T03:45:42.033Z,67.022705
2018-09-28T03:46:42.156Z,66.918945
2018-09-28T03:47:42.177Z,66.821289
2018-09-28T03:48:42.285Z,67.126465
2018-09-28T03:49:42.298Z,67.462158
2018-09-28T03:50:42.416Z,67.462158
2018-09-28T03:51:42.528Z,67.462158
2018-09-28T03:52:42.641Z,67.358398
2018-09-28T03:53:42.751Z,67.767334
2018-09-28T03:54:42.891Z,67.565918
2018-09-28T03:55:43.055Z,67.022705
2018-09-28T03:56:43.008Z,66.61377
2018-09-28T03:57:43.111Z,66.516113
2018-09-28T03:58:43.269Z,66.210938
2018-09-28T03:59:43.400Z,66.07666
2018-09-28T04:00:43.345Z,66.308594
2018-09-28T04:01:43.463Z,66.308594
2018-09-28T04:02:43.601Z,66.412354
2018-09-28T04:03:43.840Z,66.516113
2018-09-28T04:04:43.857Z,66.308594
2018-09-28T04:05:43.849Z,66.412354
2018-09-28T04:06:43.982Z,66.516113
2018-09-28T04:07:44.250Z,66.61377
2018-09-28T04:08:44.202Z,66.516113
2018-09-28T04:09:44.251Z,66.412354
2018-09-28T04:10:44.361Z,66.412354
2018-09-28T04:11:44.599Z,66.61377
2018-09-28T04:12:44.589Z,66.516113
2018-09-28T04:13:44.610Z,66.748047
2018-09-28T04:14:45.776Z,66.546631
2018-09-28T04:15:45.839Z,66.210938
2018-09-28T04:16:44.812Z,66.210938
2018-09-28T04:17:44.886Z,66.107178
2018-09-28T04:18:45.101Z,66.107178
2018-09-28T04:19:45.071Z,66.442871
2018-09-28T04:20:45.216Z,66.546631
2018-09-28T04:21:45.336Z,66.442871
2018-09-28T04:22:45.407Z,66.778564
2018-09-28T04:23:45.285Z,67.1875
2018-09-28T04:24:45.412Z,67.08374
2018-09-28T04:25:45.509Z,66.748047
2018-09-28T04:26:45.615Z,66.650391
2018-09-28T04:27:45.672Z,66.650391
2018-09-28T04:28:45.747Z,66.577148
2018-09-28T04:29:45.839Z,67.218018
2018-09-28T04:30:45.952Z,67.321777
2018-09-28T04:31:46.069Z,67.523193
2018-09-28T04:32:46.128Z,67.626953
2018-09-28T04:33:46.251Z,67.29126
2018-09-28T04:34:46.406Z,67.08374
2018-09-28T04:35:46.469Z,67.08374
2018-09-28T04:36:46.552Z,66.778564
2018-09-28T04:37:46.546Z,66.680908
2018-09-28T04:38:46.645Z,66.778564
2018-09-28T04:39:46.850Z,66.748047
2018-09-28T04:40:46.877Z,66.546631
2018-09-28T04:41:47.036Z,66.680908
2018-09-28T04:42:47.036Z,66.778564
2018-09-28T04:43:47.257Z,66.778564
2018-09-28T04:44:47.352Z,66.680908
2018-09-28T04:45:47.366Z,66.882324
2018-09-28T04:46:47.403Z,66.778564
2018-09-28T04:47:47.514Z,66.882324
2018-09-28T04:48:47.507Z,67.1875
2018-09-28T04:49:47.576Z,67.29126
2018-09-28T04:50:47.681Z,67.08374
2018-09-28T04:51:47.590Z,66.882324
2018-09-28T04:52:47.661Z,67.1875
2018-09-28T04:55:44.224Z,67.388916
2018-09-28T04:58:25.365Z,68.237305
2018-09-28T04:59:25.495Z,67.901611
2018-09-28T05:00:25.578Z,67.492676
2018-09-28T05:01:25.617Z,67.492676
2018-09-28T05:02:25.742Z,67.388916
2018-09-28T05:03:25.810Z,67.388916
2018-09-28T05:04:25.897Z,67.388916
2018-09-28T05:05:25.957Z,67.596436
2018-09-28T05:06:25.994Z,67.08374
2018-09-28T05:26:23.327Z,67.388916
2018-09-28T05:27:05.514Z,67.08374
2018-09-28T05:28:05.513Z,66.650391
2018-09-28T05:29:05.690Z,66.546631
2018-09-28T05:30:05.759Z,66.650391
2018-09-28T05:31:05.823Z,66.778564
2018-09-28T05:32:06.075Z,66.748047
2018-09-28T05:33:06.068Z,67.1875
2018-09-28T05:34:06.129Z,67.1875
2018-09-28T05:35:06.356Z,67.29126
2018-09-28T05:36:06.309Z,66.955566
2018-09-28T05:37:06.404Z,66.650391
2018-09-28T05:38:06.407Z,66.955566
2018-09-28T05:39:06.585Z,67.492676
2018-09-28T05:40:06.561Z,67.492676
2018-09-28T05:41:06.660Z,67.358398
2018-09-28T05:42:06.666Z,67.358398
2018-09-28T05:43:06.776Z,67.358398
2018-09-28T05:44:07.004Z,67.565918
2018-09-28T05:45:06.959Z,67.565918
2018-09-28T05:46:07.010Z,67.565918
2018-09-28T05:47:07.107Z,67.767334
2018-09-28T05:48:07.292Z,67.901611
2018-09-28T05:49:07.326Z,67.797852
2018-09-28T05:50:07.404Z,67.663574
2018-09-28T05:51:07.523Z,67.694092
2018-09-28T05:52:07.761Z,67.596436
2018-09-28T05:53:07.738Z,67.492676
2018-09-28T05:54:07.917Z,67.565918
2018-09-28T05:55:08.019Z,67.358398
2018-09-28T05:56:08.164Z,66.955566
2018-09-28T05:57:08.212Z,66.748047
2018-09-28T05:58:08.313Z,66.851807
2018-09-28T05:59:08.444Z,66.955566
2018-09-28T06:00:08.625Z,67.260742
2018-09-28T06:01:08.516Z,67.565918
2018-09-28T06:02:08.656Z,67.663574
2018-09-28T06:03:08.751Z,67.565918
2018-09-28T06:04:09.033Z,67.462158
2018-09-28T06:05:09.070Z,67.358398
2018-09-28T06:06:09.135Z,67.462158
2018-09-28T06:07:09.251Z,67.663574
2018-09-28T06:08:09.436Z,67.462158
2018-09-28T06:09:09.540Z,68.005371
2018-09-28T06:10:09.670Z,68.103027
2018-09-28T06:11:09.687Z,67.797852
2018-09-28T06:12:09.927Z,68.005371
2018-09-28T06:13:09.881Z,68.005371
2018-09-28T06:14:09.966Z,67.871094
2018-09-28T06:15:10.074Z,67.565918
2018-09-28T06:16:10.204Z,67.358398
2018-09-28T06:17:10.199Z,67.358398
2018-09-28T06:18:10.303Z,67.260742
2018-09-28T06:19:10.441Z,67.358398
2018-09-28T06:20:10.620Z,67.462158
2018-09-28T06:21:10.600Z,67.767334
2018-09-28T06:22:10.663Z,68.206787
2018-09-28T06:23:10.865Z,68.103027
2018-09-28T06:24:10.862Z,68.07251
2018-09-28T06:25:10.855Z,67.565918
2018-09-28T06:26:10.881Z,67.663574
2018-09-28T06:27:10.835Z,67.565918
2018-09-28T06:28:10.949Z,67.431641
2018-09-28T06:29:11.062Z,67.565918
2018-09-28T06:30:11.215Z,67.633057
2018-09-28T06:31:11.231Z,67.327881
2018-09-28T06:32:11.201Z,67.224121
2018-09-28T06:33:11.224Z,67.736816
2018-09-28T06:34:12.222Z,67.529297
2018-09-28T06:35:11.349Z,67.834473
2018-09-28T06:36:11.521Z,68.682861
2018-09-28T06:37:11.601Z,68.347168
2018-09-28T06:38:11.752Z,68.347168
2018-09-28T06:39:11.740Z,68.139648
2018-09-28T06:40:11.797Z,68.041992
2018-09-28T06:41:11.935Z,68.041992
2018-09-28T06:42:12.047Z,68.109131
2018-09-28T06:43:12.131Z,68.109131
2018-09-28T06:44:12.168Z,68.212891
2018-09-28T06:45:12.292Z,68.652344
2018-09-28T06:46:12.457Z,68.719482
2018-09-28T06:47:12.476Z,68.615723
2018-09-28T06:48:12.523Z,68.719482
2018-09-28T06:49:12.617Z,68.823242
2018-09-28T06:50:12.711Z,69.53125
2018-09-28T06:51:13.098Z,69.329834
2018-09-28T06:52:12.989Z,68.994141
2018-09-28T06:53:13.127Z,68.890381
2018-09-28T06:54:13.322Z,68.756104
2018-09-28T06:55:13.364Z,68.756104
2018-09-28T06:56:13.439Z,68.658447
2018-09-28T06:57:13.526Z,68.756104
2018-09-28T06:58:13.691Z,68.756104
2018-09-28T06:59:13.893Z,69.909668
2018-09-28T07:00:13.956Z,69.775391
2018-09-28T07:01:14.119Z,69.470215
2018-09-28T07:02:14.144Z,69.232178
2018-09-28T07:03:14.305Z,69.128418
2018-09-28T07:04:14.313Z,68.927002
2018-09-28T07:05:14.370Z,69.000244
2018-09-28T07:06:14.683Z,69.20166
2018-09-28T07:07:14.624Z,69.73877
2018-09-28T07:08:14.501Z,69.506836
2018-09-28T07:09:14.562Z,69.604492
2018-09-28T07:10:14.671Z,69.812012
2018-09-28T07:11:14.866Z,70.013428
2018-09-28T07:12:14.951Z,70.013428
2018-09-28T07:13:14.875Z,70.214844
2018-09-28T07:14:15.074Z,70.214844
2018-09-28T07:15:15.131Z,70.214844
2018-09-28T07:16:15.301Z,70.080566
2018-09-28T07:17:15.318Z,69.976807
2018-09-28T07:18:15.530Z,69.976807
2018-09-28T07:19:15.585Z,69.976807
2018-09-28T07:20:15.672Z,70.281982
2018-09-28T07:21:15.709Z,70.281982
2018-09-28T07:22:15.717Z,70.892334
2018-09-28T07:23:15.697Z,71.19751
2018-09-28T07:24:15.698Z,71.466064
2018-09-28T07:25:15.933Z,71.466064
2018-09-28T07:26:15.749Z,71.368408
2018-09-28T07:27:15.871Z,71.569824
2018-09-28T07:28:15.993Z,71.77124
2018-09-28T07:29:16.204Z,71.569824
2018-09-28T07:30:16.235Z,71.838379
2018-09-28T07:31:16.244Z,72.143555
2018-09-28T07:32:16.239Z,72.784424
2018-09-28T07:33:16.238Z,72.546387
2018-09-28T07:34:16.337Z,72.851562
2018-09-28T07:35:16.437Z,73.358154
2018-09-28T07:36:16.586Z,73.254395
2018-09-28T07:37:16.586Z,73.55957
2018-09-28T07:38:16.433Z,73.968506
2018-09-28T07:39:16.596Z,74.066162
2018-09-28T07:40:16.563Z,74.133301
2018-09-28T07:41:16.640Z,74.334717
2018-09-28T07:42:16.762Z,74.438477
2018-09-28T07:43:16.863Z,74.438477
2018-09-28T07:44:16.987Z,74.542236
2018-09-28T07:45:17.064Z,75.109863
2018-09-28T07:46:17.203Z,75.012207
2018-09-28T07:47:17.233Z,75.012207
2018-09-28T07:48:17.319Z,74.707031
2018-09-28T07:49:17.480Z,74.707031
2018-09-28T07:50:17.526Z,74.365234
2018-09-28T07:51:17.581Z,74.468994
2018-09-28T07:52:17.718Z,74.365234
2018-09-28T07:53:17.819Z,74.975586
2018-09-28T07:54:17.912Z,75.378418
2018-09-28T07:55:18.022Z,75.280762
2018-09-28T07:56:18.136Z,75.073242
2018-09-28T07:57:18.362Z,75.073242
2018-09-28T07:58:18.329Z,75.378418
2018-09-28T07:59:18.366Z,75.482178
2018-09-28T08:00:18.487Z,75.579834
2018-09-28T08:01:18.662Z,75.579834
2018-09-28T08:02:18.781Z,75.921631
2018-09-28T08:03:18.887Z,76.226807
2018-09-28T08:04:19.001Z,75.921631
2018-09-28T08:05:19.278Z,75.921631
2018-09-28T08:06:19.243Z,75.88501
2018-09-28T08:07:19.277Z,76.226807
2018-09-28T08:08:19.350Z,76.086426
2018-09-28T08:09:19.604Z,75.88501
2018-09-28T08:10:19.546Z,75.88501
2018-09-28T08:11:19.590Z,75.787354
2018-09-28T08:12:19.774Z,76.629639
2018-09-28T08:13:19.775Z,76.794434
2018-09-28T08:14:19.897Z,76.049805
2018-09-28T08:15:19.987Z,76.086426
2018-09-28T08:16:20.145Z,76.049805
2018-09-28T08:17:20.311Z,75.750732
2018-09-28T08:18:20.386Z,75.445557
2018-09-28T08:19:20.377Z,75.311279
2018-09-28T08:20:20.509Z,75.006104
2018-09-28T08:21:20.656Z,75.244141
2018-09-28T08:22:20.682Z,75.244141
2018-09-28T08:23:20.812Z,75.244141
2018-09-28T08:24:20.858Z,75.20752
2018-09-28T08:25:20.815Z,75.20752
2018-09-28T08:26:20.923Z,74.700928
2018-09-28T08:27:20.974Z,74.804688
2018-09-28T08:28:21.116Z,74.804688
2018-09-28T08:29:21.130Z,74.804688
2018-09-28T08:30:21.176Z,74.700928
2018-09-28T08:31:21.290Z,74.401855
2018-09-28T08:32:21.411Z,73.99292
2018-09-28T08:33:21.569Z,74.09668
2018-09-28T08:34:21.546Z,74.603271
2018-09-28T08:36:18.216Z,74.700928
2018-09-28T08:37:18.245Z,74.09668
2018-09-28T08:38:18.456Z,74.298096
2018-09-28T08:39:18.547Z,75.006104
2018-09-28T08:40:18.450Z,74.969482
2018-09-28T08:41:18.574Z,74.462891
2018-09-28T08:42:18.673Z,74.060059
2018-09-28T08:43:18.675Z,73.962402
2018-09-28T08:44:18.722Z,73.553467
2018-09-28T08:45:18.980Z,73.419189
2018-09-28T08:46:18.971Z,73.217773
2018-09-28T08:47:18.973Z,73.016357
2018-09-28T09:04:28.082Z,73.419189
2018-09-28T09:04:44.078Z,73.114014
2018-09-28T09:05:44.115Z,73.016357
2018-09-28T09:06:44.239Z,73.217773
2018-09-28T09:07:44.358Z,73.016357
2018-09-28T09:08:44.557Z,72.912598
2018-09-28T09:09:44.622Z,72.479248
2018-09-28T09:10:44.571Z,72.271729
2018-09-28T09:11:44.715Z,72.375488
2018-09-28T09:12:44.942Z,72.479248
2018-09-28T09:13:44.901Z,72.375488
2018-09-28T09:14:45.060Z,73.419189
2018-09-28T09:15:45.050Z,73.486328
2018-09-28T09:16:45.161Z,73.382568
2018-09-28T09:17:45.240Z,73.284912
2018-09-28T09:18:45.330Z,73.181152
2018-09-28T09:19:45.443Z,72.88208
2018-09-28T09:20:45.474Z,72.680664
2018-09-28T09:21:45.438Z,72.375488
2018-09-28T09:22:45.557Z,71.838379
2018-09-28T09:23:45.816Z,72.039795
2018-09-28T09:24:45.767Z,72.174072
2018-09-28T09:25:45.783Z,72.540283
2018-09-28T09:26:45.919Z,72.442627
2018-09-28T09:27:46.166Z,71.636963
2018-09-28T09:28:46.142Z,71.331787
2018-09-28T09:29:46.133Z,71.435547
2018-09-28T09:30:46.277Z,70.825195
2018-09-28T09:31:46.567Z,70.794678
2018-09-28T09:32:46.541Z,71.099854
2018-09-28T09:33:46.562Z,70.996094
2018-09-28T09:34:46.635Z,71.099854
2018-09-28T09:35:46.660Z,71.19751
2018-09-28T09:36:46.781Z,69.885254
2018-09-28T09:37:46.863Z,69.586182
2018-09-28T09:38:47.029Z,69.18335
2018-09-28T09:39:47.120Z,69.586182
2018-09-28T09:40:47.282Z,69.250488
2018-09-28T09:41:47.374Z,69.451904
2018-09-28T09:42:47.489Z,70.458984
2018-09-28T09:43:47.324Z,70.6604
2018-09-28T09:44:47.395Z,70.861816
2018-09-28T09:45:47.423Z,70.355225
2018-09-28T09:46:47.494Z,70.556641
2018-09-28T09:47:47.590Z,70.6604
2018-09-28T09:48:47.637Z,71.704102
2018-09-28T09:49:47.742Z,71.063232
2018-09-28T09:50:47.757Z,70.965576
2018-09-28T09:51:47.828Z,71.063232
2018-09-28T09:52:47.840Z,71.063232
2018-09-28T09:53:48.066Z,70.355225
2018-09-28T09:55:44.889Z,70.153809
2018-09-28T09:56:45.080Z,70.257568
2018-09-28T09:57:45.048Z,70.153809
2018-09-28T09:58:45.148Z,70.556641
2018-09-28T09:59:45.294Z,71.264648
2018-09-28T10:01:31.374Z,70.556641
2018-09-28T10:02:31.479Z,70.623779
2018-09-28T10:03:31.667Z,70.861816
2018-09-28T10:04:31.609Z,70.324707
2018-09-28T10:05:31.723Z,69.415283
2018-09-28T10:06:31.729Z,69.012451
2018-09-28T10:09:11.017Z,68.511963
2018-09-28T10:10:11.301Z,68.780518
2018-09-28T10:11:11.280Z,68.981934
2018-09-28T10:12:11.380Z,68.780518
2018-09-28T10:13:11.481Z,68.981934
2018-09-28T10:14:11.584Z,70.697021
2018-09-28T10:15:11.593Z,69.384766
2018-09-28T10:16:11.657Z,67.370605
2018-09-28T10:17:11.850Z,67.877197
2018-09-28T10:18:11.898Z,68.078613
2018-09-28T10:19:13.016Z,66.967773
2018-09-28T10:24:04.463Z,67.071533
2018-09-28T10:25:04.572Z,67.474365
2018-09-28T10:26:04.741Z,67.974854
2018-09-28T10:27:04.824Z,66.668701
2018-09-28T10:28:04.863Z,65.588379
2018-09-28T10:29:04.849Z,66.699219
2018-09-28T10:30:05.016Z,67.474365
2018-09-28T10:31:05.045Z,66.833496
2018-09-28T10:32:05.018Z,67.236328
2018-09-28T10:33:05.135Z,67.236328
2018-09-28T10:34:05.193Z,66.63208
2018-09-28T10:35:05.394Z,67.63916
2018-09-28T10:36:05.252Z,66.534424
2018-09-28T10:37:05.399Z,66.833496
2018-09-28T10:38:05.604Z,66.229248
2018-09-28T10:39:05.498Z,66.937256
2018-09-28T10:41:46.343Z,66.400146
2018-09-28T10:42:02.430Z,66.906738
2018-09-28T10:43:02.552Z,67.510986
2018-09-28T10:44:02.566Z,65.19165
2018-09-28T10:45:02.654Z,66.19873
2018-09-28T10:46:02.938Z,66.772461
2018-09-28T10:47:03.321Z,66.503906
2018-09-28T10:48:02.876Z,66.601562
2018-09-28T10:49:02.986Z,65.795898
2018-09-28T10:50:03.190Z,66.772461
2018-09-28T10:51:03.017Z,66.772461
2018-09-28T10:52:03.288Z,65.765381
2018-09-28T10:53:03.253Z,65.667725
2018-09-28T10:54:03.248Z,65.161133
2018-09-28T10:55:03.240Z,65.966797
2018-09-28T10:56:04.285Z,65.869141
2018-09-28T10:57:03.725Z,66.070557
2018-09-28T10:58:04.089Z,65.563965
2018-09-28T10:59:03.400Z,65.533447
2018-09-28T11:00:03.543Z,63.928223
2018-09-28T11:01:03.719Z,64.862061
2018-09-28T11:02:03.688Z,64.556885
2018-09-28T11:03:03.763Z,64.959717
2018-09-28T11:04:03.937Z,65.765381
2018-09-28T11:05:03.910Z,67.510986
2018-09-28T11:06:03.935Z,67.74292
2018-09-28T11:07:04.012Z,69.250488
2018-09-28T11:08:04.218Z,68.011475
2018-09-28T11:09:04.125Z,67.437744
2018-09-28T11:10:04.168Z,67.840576
2018-09-28T11:11:04.307Z,68.511963
2018-09-28T11:12:04.489Z,68.511963
2018-09-28T11:13:04.492Z,68.280029
2018-09-28T11:14:04.615Z,68.182373
2018-09-28T11:15:04.627Z,68.109131
2018-09-28T11:16:04.763Z,68.243408
2018-09-28T11:17:04.785Z,67.407227
2018-09-28T11:18:04.794Z,67.74292
2018-09-28T11:19:04.892Z,67.944336
2018-09-28T11:20:04.834Z,68.347168
2018-09-28T11:21:04.923Z,67.74292
2018-09-28T11:22:05.033Z,67.407227
2018-09-28T11:23:05.171Z,66.772461
2018-09-28T11:24:05.230Z,66.473389
2018-09-28T11:25:05.298Z,66.235352
2018-09-28T11:26:05.380Z,65.734863
2018-09-28T11:27:05.622Z,66.003418
2018-09-28T11:28:05.619Z,65.234375
2018-09-28T11:29:05.701Z,65.600586
2018-09-28T11:30:05.743Z,65.130615
2018-09-28T11:31:05.719Z,65.234375
2018-09-28T11:32:05.876Z,66.033936
2018-09-28T11:33:05.990Z,65.130615
2018-09-28T11:34:07.300Z,65.203857
2018-09-28T11:35:06.202Z,64.697266
2018-09-28T11:36:06.308Z,64.196777
2018-09-28T11:37:06.261Z,64.801025
2018-09-28T11:38:06.346Z,64.697266
2018-09-28T11:39:06.550Z,64.801025
2018-09-28T11:40:06.841Z,64.398193
2018-09-28T11:41:06.705Z,64.27002
2018-09-28T11:42:06.736Z,64.27002
2018-09-28T11:43:06.816Z,64.239502
2018-09-28T11:44:06.797Z,63.134766
2018-09-28T11:45:06.814Z,63.031006
2018-09-28T11:46:06.954Z,63.531494
2018-09-28T11:47:07.236Z,63.73291
2018-09-28T11:48:07.239Z,62.628174
2018-09-28T11:49:07.318Z,62.82959
2018-09-28T11:50:07.362Z,61.828613
2018-09-28T11:51:07.578Z,61.523438
2018-09-28T11:52:07.520Z,61.999512
2018-09-28T11:53:07.636Z,61.895752
2018-09-28T11:54:07.772Z,61.59668
2018-09-28T11:55:07.835Z,62.530518
2018-09-28T11:56:08.004Z,63.134766
2018-09-28T11:57:08.156Z,63.232422
2018-09-28T11:58:08.130Z,62.628174
2018-09-28T11:59:08.115Z,63.134766
2018-09-28T12:00:08.236Z,63.134766
2018-09-28T12:01:08.316Z,63.134766
2018-09-28T12:02:08.407Z,63.360596
2018-09-28T12:04:24.199Z,63.83667
2018-09-28T12:05:24.271Z,63.031006
2018-09-28T12:07:20.885Z,63.031006
2018-09-28T12:08:20.932Z,62.731934
2018-09-28T12:09:21.053Z,62.701416
2018-09-28T12:10:21.164Z,62.5
2018-09-28T12:36:42.735Z,40.942383
2018-09-28T12:37:42.632Z,40.979004
2018-09-28T12:38:42.673Z,41.156006
2018-09-28T12:39:42.820Z,41.809082
2018-09-28T12:40:42.884Z,41.271973
2018-09-28T12:41:42.783Z,40.228271